Dissen, Missouri
Current Conditions -  °F | °C
As of 4:15 AM on Thursday 29 Jan 2015 (Local Time) from KFYG Reporting Station
Few Clouds Few Clouds  
Wind Chill: 50°   Ceiling: Unl
Heat Index: 50°   Visibility: 10mi
Dew Point: 39°   Wind: 10mph
Humidity: 66%   Direction: 310°NW
Pressure: 29.83"   Gusts: NA
Location:  38.5502°N, 91.2585°W
Report Text: KFYG 291015Z AUTO 31009KT 10SM FEW036 10/04 A2983 RMK AO2
Loading
Personal Weather Stations






























Interactive Weather Map New forecast layout! Learn more

10-Day Weather Forecast

Advertisements
Track Severe Weather on mobile